Time;durP1;ratioP1;P1;durP2;ratioP2;P2;SDS_P1;SDS_P2;PMS_P1;PMS_P2;Temp;Humidity;BMP_temperature;BMP_pressure;BME280_temperature;BME280_humidity;BME280_pressure;Samples;Min_cycle;Max_cycle;Signal;HPM_P1;HPM_P2
2023/06/01 00:00:09;;;;;;;;;;;;;;;12.36;77.89;102281.34;5024391;28;1339;-71
2023/06/01 00:02:35;;;;;;;;;;;;;;;12.32;79.43;102279.84;5046621;28;1209;-71
2023/06/01 00:05:00;;;;;;;;;;;;;;;12.27;78.61;102274.13;5047247;28;1276;-71
2023/06/01 00:07:25;;;;;;;;;;;;;;;12.22;78.43;102270.06;5043498;28;1520;-71
2023/06/01 00:09:51;;;;;;;;;;;;;;;12.21;78.43;102273.63;5047462;28;1248;-71
2023/06/01 00:12:16;;;;;;;;;;;;;;;12.18;78.99;102263.41;5044294;28;1890;-70
2023/06/01 00:14:41;;;;;;;;;;;;;;;12.16;78.93;102275.69;5053885;28;1253;-72
2023/06/01 00:17:07;;;;;;;;;;;;;;;12.16;78.01;102280.88;5028461;28;1602;-70
2023/06/01 00:19:34;;;;;;;;;;;;;;;12.15;77.50;102273.97;5053382;28;1274;-70
2023/06/01 00:22:00;;;;;;;;;;;;;;;12.09;77.82;102268.34;5050701;28;1131;-71
2023/06/01 00:24:25;;;;;;;;;;;;;;;12.03;79.31;102263.56;5037227;28;1319;-71
2023/06/01 00:26:51;;;;;;;;;;;;;;;11.84;79.98;102271.72;5022482;28;1252;-69
2023/06/01 00:29:16;;;;;;;;;;;;;;;11.78;79.09;102274.66;5051402;28;1381;-72
2023/06/01 00:31:42;;;;;;;;;;;;;;;11.74;80.38;102274.00;5044892;28;1953;-72
2023/06/01 00:34:07;;;;;;;;;;;;;;;11.68;80.66;102275.25;5034434;28;1219;-70
2023/06/01 00:36:32;;;;;;;;;;;;;;;11.58;81.12;102268.94;5045250;28;2190;-71
2023/06/01 00:39:02;;;;;;;;;;;;;;;11.53;79.63;102276.22;5046128;28;1422;-70
2023/06/01 00:41:27;;;;;;;;;;;;;;;11.45;81.50;102270.66;5044750;28;1081;-70
2023/06/01 00:43:52;;;;;;;;;;;;;;;11.41;80.67;102274.34;5054568;28;1060;-70
2023/06/01 00:46:18;;;;;;;;;;;;;;;11.40;80.98;102280.50;5046098;28;923;-70
2023/06/01 00:48:43;;;;;;;;;;;;;;;11.35;81.21;102272.13;5028258;28;1393;-71
2023/06/01 00:51:08;;;;;;;;;;;;;;;11.36;79.48;102266.03;5029550;28;1333;-71
2023/06/01 00:53:34;;;;;;;;;;;;;;;11.30;81.73;102263.81;5030149;28;1906;-71
2023/06/01 00:55:59;;;;;;;;;;;;;;;11.22;80.62;102266.03;5040154;28;1521;-70
2023/06/01 00:58:25;;;;;;;;;;;;;;;11.16;82.00;102273.28;5052847;28;1290;-70
2023/06/01 01:00:53;;;;;;;;;;;;;;;11.12;81.21;102271.78;5060420;28;1169;-71
2023/06/01 01:03:18;;;;;;;;;;;;;;;11.05;81.71;102265.31;5046657;28;1387;-70
2023/06/01 01:05:44;;;;;;;;;;;;;;;10.94;81.72;102262.50;5056285;28;997;-70
2023/06/01 01:08:14;;;;;;;;;;;;;;;10.92;81.77;102264.38;5048458;28;1326;-71
2023/06/01 01:10:45;;;;;;;;;;;;;;;10.93;81.44;102268.63;5042731;28;1412;-70
2023/06/01 01:13:14;;;;;;;;;;;;;;;10.95;81.59;102274.56;5056498;28;1968;-72
2023/06/01 01:15:39;;;;;;;;;;;;;;;10.90;81.34;102281.81;5034426;28;1291;-70
2023/06/01 01:18:11;;;;;;;;;;;;;;;10.84;81.40;102283.00;5043526;28;1640;-70
2023/06/01 01:20:41;;;;;;;;;;;;;;;10.88;80.99;102283.66;5024837;28;1397;-70
2023/06/01 01:23:14;;;;;;;;;;;;;;;10.89;81.46;102285.31;5056472;28;1178;-70
2023/06/01 01:25:47;;;;;;;;;;;;;;;10.93;80.82;102280.78;5028635;28;1343;-71
2023/06/01 01:28:31;;;;;;;;;;;;;;;10.88;82.02;102281.06;5027466;28;1313;-69
2023/06/01 01:30:58;;;;;;;;;;;;;;;10.86;80.95;102269.94;5041254;28;1291;-70
2023/06/01 01:33:24;;;;;;;;;;;;;;;10.85;80.97;102279.50;5055267;28;1919;-70
2023/06/01 01:35:50;;;;;;;;;;;;;;;10.85;81.35;102279.50;5044824;28;1395;-71
2023/06/01 01:38:15;;;;;;;;;;;;;;;10.85;81.65;102279.50;5051370;28;1225;-70
2023/06/01 01:40:40;;;;;;;;;;;;;;;10.83;82.23;102270.09;5049943;28;1118;-70
2023/06/01 01:43:06;;;;;;;;;;;;;;;10.80;81.96;102280.69;5035249;28;1298;-69
2023/06/01 01:45:31;;;;;;;;;;;;;;;10.72;83.01;102281.13;5046612;28;1556;-70
2023/06/01 01:48:05;;;;;;;;;;;;;;;10.69;82.44;102277.88;5040094;28;1511;-70
2023/06/01 01:50:36;;;;;;;;;;;;;;;10.61;82.38;102284.38;5052155;28;1368;-71
2023/06/01 01:53:02;;;;;;;;;;;;;;;10.60;82.96;102274.88;5049881;28;1918;-71
2023/06/01 01:55:28;;;;;;;;;;;;;;;10.58;82.30;102271.56;5047404;28;1472;-72
2023/06/01 01:57:55;;;;;;;;;;;;;;;10.60;83.47;102284.44;5028550;28;1276;-70
2023/06/01 02:00:21;;;;;;;;;;;;;;;10.61;83.22;102281.78;5026093;28;1531;-70
2023/06/01 02:02:47;;;;;;;;;;;;;;;10.61;83.74;102291.31;5048781;28;1423;-70
2023/06/01 02:05:12;;;;;;;;;;;;;;;10.51;84.62;102285.81;5042005;28;1310;-72
2023/06/01 02:07:37;;;;;;;;;;;;;;;10.46;84.87;102277.47;5030955;28;1422;-71
2023/06/01 02:10:02;;;;;;;;;;;;;;;10.44;83.69;102279.31;5050274;28;1241;-70
2023/06/01 02:12:28;;;;;;;;;;;;;;;10.43;85.24;102279.38;5034393;28;1969;-72
2023/06/01 02:14:53;;;;;;;;;;;;;;;10.40;84.16;102272.63;5043655;28;1295;-70
2023/06/01 02:17:18;;;;;;;;;;;;;;;10.45;83.38;102275.81;5038246;28;1124;-70
2023/06/01 02:19:44;;;;;;;;;;;;;;;10.47;85.11;102276.53;5034939;28;1209;-70
2023/06/01 02:22:09;;;;;;;;;;;;;;;10.51;84.56;102269.44;5044893;28;1168;-70
2023/06/01 02:24:36;;;;;;;;;;;;;;;10.47;84.68;102268.75;5052670;28;1274;-71
2023/06/01 02:27:02;;;;;;;;;;;;;;;10.49;84.58;102264.31;5060320;28;1099;-71
2023/06/01 02:29:27;;;;;;;;;;;;;;;10.45;84.84;102270.63;5031149;28;1185;-70
2023/06/01 02:31:52;;;;;;;;;;;;;;;10.39;84.68;102268.38;5028695;28;1984;-70
2023/06/01 02:34:18;;;;;;;;;;;;;;;10.36;83.79;102271.13;5036294;28;1220;-69
2023/06/01 02:36:43;;;;;;;;;;;;;;;10.31;85.13;102262.78;5051335;28;1236;-71
2023/06/01 02:39:09;;;;;;;;;;;;;;;10.34;84.21;102267.81;5033703;28;1308;-69
2023/06/01 02:41:34;;;;;;;;;;;;;;;10.38;85.71;102274.50;5057839;28;966;-69
2023/06/01 02:43:59;;;;;;;;;;;;;;;10.36;84.16;102274.56;5026282;28;1294;-72
2023/06/01 02:46:25;;;;;;;;;;;;;;;10.39;84.83;102270.97;5046227;28;1093;-69
2023/06/01 02:48:51;;;;;;;;;;;;;;;10.40;84.62;102277.00;5036247;28;1210;-70
2023/06/01 02:51:16;;;;;;;;;;;;;;;10.33;84.67;102271.31;5047780;28;1073;-71
2023/06/01 02:53:42;;;;;;;;;;;;;;;10.30;84.67;102271.50;5045059;28;1893;-70
2023/06/01 02:56:07;;;;;;;;;;;;;;;10.34;84.53;102273.00;5041802;28;1527;-69
2023/06/01 02:58:32;;;;;;;;;;;;;;;10.36;85.64;102271.97;5040021;28;1090;-70
2023/06/01 03:00:57;;;;;;;;;;;;;;;10.33;84.73;102266.97;5042740;28;1490;-69
2023/06/01 03:03:23;;;;;;;;;;;;;;;10.37;85.01;102267.59;5030488;28;1592;-70
2023/06/01 03:05:48;;;;;;;;;;;;;;;10.38;84.55;102269.31;5047332;28;1508;-71
2023/06/01 03:08:14;;;;;;;;;;;;;;;10.35;84.20;102259.94;5037781;28;1239;-69
2023/06/01 03:10:39;;;;;;;;;;;;;;;10.41;83.63;102269.13;5027850;28;1286;-70
2023/06/01 03:13:04;;;;;;;;;;;;;;;10.45;83.61;102265.44;5053240;28;1893;-69
2023/06/01 03:15:29;;;;;;;;;;;;;;;10.47;83.59;102267.94;5051161;28;1420;-70
2023/06/01 03:17:55;;;;;;;;;;;;;;;10.49;84.34;102264.31;5056997;28;1253;-69
2023/06/01 03:20:20;;;;;;;;;;;;;;;10.47;84.28;102268.75;5029972;28;1408;-70
2023/06/01 03:22:45;;;;;;;;;;;;;;;10.41;84.50;102274.31;5054895;28;1034;-71
2023/06/01 03:25:12;;;;;;;;;;;;;;;10.34;84.61;102268.63;5038270;28;1544;-69
2023/06/01 03:27:40;;;;;;;;;;;;;;;10.33;84.75;102261.78;5052610;28;1298;-70
2023/06/01 03:30:09;;;;;;;;;;;;;;;10.31;83.87;102270.56;5056107;28;1198;-69
2023/06/01 03:32:39;;;;;;;;;;;;;;;10.37;83.91;102267.59;5048470;28;1890;-69
2023/06/01 03:35:07;;;;;;;;;;;;;;;10.39;83.59;102263.19;5040325;28;1324;-70
2023/06/01 03:37:32;;;;;;;;;;;;;;;10.37;83.62;102259.84;5047361;28;1314;-70
2023/06/01 03:39:57;;;;;;;;;;;;;;;10.31;84.50;102265.38;5030051;28;1266;-70
2023/06/01 03:42:22;;;;;;;;;;;;;;;10.29;83.64;102260.28;5034950;28;1276;-73
2023/06/01 03:44:48;;;;;;;;;;;;;;;10.32;83.69;102264.44;5032256;28;1326;-69
2023/06/01 03:47:14;;;;;;;;;;;;;;;10.37;83.47;102262.44;5035142;28;1266;-71
2023/06/01 03:49:39;;;;;;;;;;;;;;;10.40;83.95;102257.06;5044943;28;1257;-70
2023/06/01 03:52:05;;;;;;;;;;;;;;;10.44;83.38;102252.56;5031360;28;1902;-69
2023/06/01 03:54:30;;;;;;;;;;;;;;;10.42;83.90;102255.22;5041770;28;1501;-70
2023/06/01 03:56:56;;;;;;;;;;;;;;;10.42;84.06;102259.56;5053327;28;1327;-70
2023/06/01 03:59:21;;;;;;;;;;;;;;;10.41;83.21;102263.09;5064182;28;1527;-70
2023/06/01 04:01:48;;;;;;;;;;;;;;;10.41;82.83;102269.13;5050523;28;1419;-71
2023/06/01 04:04:16;;;;;;;;;;;;;;;10.37;83.42;102265.84;5046201;28;993;-70
2023/06/01 04:06:44;;;;;;;;;;;;;;;10.40;83.07;102271.81;5044019;28;1142;-71
2023/06/01 04:09:10;;;;;;;;;;;;;;;10.39;83.54;102265.78;5044362;28;1388;-68
2023/06/01 04:11:36;;;;;;;;;;;;;;;10.41;82.99;102269.13;5053135;28;1894;-69
2023/06/01 04:14:01;;;;;;;;;;;;;;;10.35;83.95;102274.66;5052056;28;1244;-68
2023/06/01 04:16:26;;;;;;;;;;;;;;;10.38;83.86;102269.31;5055761;28;1233;-70
2023/06/01 04:18:52;;;;;;;;;;;;;;;10.41;82.99;102276.91;5036650;28;1269;-71
2023/06/01 04:21:19;;;;;;;;;;;;;;;10.42;83.74;102270.78;5045619;28;1383;-69
2023/06/01 04:23:45;;;;;;;;;;;;;;;10.48;83.27;102270.41;5039032;28;1176;-70
2023/06/01 04:26:10;;;;;;;;;;;;;;;10.53;83.17;102268.41;5037967;28;1238;-69
2023/06/01 04:28:36;;;;;;;;;;;;;;;10.53;83.42;102271.00;5046446;28;1271;-69
2023/06/01 04:31:02;;;;;;;;;;;;;;;10.49;82.93;102277.28;5049211;28;1279;-69
2023/06/01 04:33:27;;;;;;;;;;;;;;;10.54;82.89;102267.47;5033659;28;1949;-71
2023/06/01 04:35:53;;;;;;;;;;;;;;;10.58;83.36;102268.13;5057133;28;982;-69
2023/06/01 04:38:19;;;;;;;;;;;;;;;10.61;83.52;102271.41;5031756;28;1367;-70
2023/06/01 04:40:47;;;;;;;;;;;;;;;10.62;83.14;102278.25;5034438;28;1331;-70
2023/06/01 04:43:13;;;;;;;;;;;;;;;10.68;82.53;102276.22;5043766;28;1090;-70
2023/06/01 04:45:38;;;;;;;;;;;;;;;10.75;82.53;102290.50;5040805;28;1097;-69
2023/06/01 04:48:08;;;;;;;;;;;;;;;10.75;82.61;102277.53;5040254;28;1288;-69
2023/06/01 04:50:34;;;;;;;;;;;;;;;10.69;82.56;102277.88;5031576;28;1498;-70
2023/06/01 04:53:00;;;;;;;;;;;;;;;10.68;82.98;102278.81;5025638;28;1980;-70
2023/06/01 04:55:26;;;;;;;;;;;;;;;10.63;82.86;102277.31;5046852;28;1281;-70
2023/06/01 04:57:51;;;;;;;;;;;;;;;10.55;83.03;102276.94;5053545;28;1314;-71
2023/06/01 05:00:18;;;;;;;;;;;;;;;10.48;83.19;102270.41;5047368;28;1385;-71
2023/06/01 05:02:44;;;;;;;;;;;;;;;10.47;82.99;102276.53;5034782;28;1378;-70
2023/06/01 05:05:10;;;;;;;;;;;;;;;10.49;83.80;102272.09;5047451;28;1181;-70
2023/06/01 05:07:38;;;;;;;;;;;;;;;10.48;83.34;102275.59;5046925;28;1369;-71
2023/06/01 05:10:05;;;;;;;;;;;;;;;10.49;82.56;102277.28;5055367;28;1233;-69
2023/06/01 05:12:31;;;;;;;;;;;;;;;10.47;82.77;102278.31;5034464;28;2214;-71
2023/06/01 05:14:56;;;;;;;;;;;;;;;10.44;82.60;102279.31;5040316;28;1189;-70
2023/06/01 05:17:21;;;;;;;;;;;;;;;10.47;82.99;102279.13;5026855;28;1281;-72
2023/06/01 05:19:47;;;;;;;;;;;;;;;10.51;82.70;102278.03;5041764;28;1274;-70
2023/06/01 05:22:12;;;;;;;;;;;;;;;10.50;82.40;102278.97;5043208;28;1304;-70
2023/06/01 05:24:37;;;;;;;;;;;;;;;10.55;83.08;102278.69;5044040;28;1400;-69
2023/06/01 05:27:02;;;;;;;;;;;;;;;10.55;82.36;102276.94;5050699;28;1242;-70
2023/06/01 05:29:28;;;;;;;;;;;;;;;10.58;82.92;102268.97;5038086;28;1369;-70
2023/06/01 05:31:53;;;;;;;;;;;;;;;10.56;83.16;102277.78;5048908;28;1962;-69
2023/06/01 05:34:18;;;;;;;;;;;;;;;10.62;83.01;102282.59;5052128;28;1333;-69
2023/06/01 05:36:43;;;;;;;;;;;;;;;10.59;83.03;102275.81;5054575;28;1148;-71
2023/06/01 05:39:09;;;;;;;;;;;;;;;10.58;83.23;102276.75;5046305;28;1333;-71
2023/06/01 05:41:34;;;;;;;;;;;;;;;10.56;83.20;102283.81;5043282;28;1290;-70
2023/06/01 05:43:59;;;;;;;;;;;;;;;10.56;82.45;102283.81;5054071;28;1443;-71
2023/06/01 05:46:25;;;;;;;;;;;;;;;10.60;82.47;102290.47;5046413;28;1288;-70
2023/06/01 05:48:50;;;;;;;;;;;;;;;10.62;82.83;102287.78;5059781;28;1122;-69
2023/06/01 05:51:16;;;;;;;;;;;;;;;10.65;83.19;102282.41;5050549;28;1361;-69
2023/06/01 05:53:41;;;;;;;;;;;;;;;10.75;83.53;102282.72;5033527;28;1965;-70
2023/06/01 05:56:06;;;;;;;;;;;;;;;10.80;82.19;102288.47;5047243;28;1411;-69
2023/06/01 05:58:31;;;;;;;;;;;;;;;10.81;83.22;102287.53;5033876;28;1018;-70
2023/06/01 06:00:57;;;;;;;;;;;;;;;10.79;82.27;102285.03;5039146;28;1672;-69
2023/06/01 06:03:22;;;;;;;;;;;;;;;10.67;82.39;102290.09;5046129;28;1605;-69
2023/06/01 06:05:48;;;;;;;;;;;;;;;10.68;82.54;102286.59;5046230;28;1340;-69
2023/06/01 06:08:13;;;;;;;;;;;;;;;10.77;83.54;102291.22;5032654;28;1756;-70
2023/06/01 06:10:38;;;;;;;;;;;;;;;10.81;82.53;102287.53;5030352;28;1358;-69
2023/06/01 06:13:03;;;;;;;;;;;;;;;10.91;82.82;102283.47;5044788;28;1963;-69
2023/06/01 06:15:29;;;;;;;;;;;;;;;10.96;82.68;102286.63;5042124;28;1329;-71
2023/06/01 06:17:55;;;;;;;;;;;;;;;10.98;82.44;102284.78;5055891;28;1284;-71
2023/06/01 06:20:21;;;;;;;;;;;;;;;11.06;81.82;102281.72;5051272;28;1188;-71
2023/06/01 06:22:49;;;;;;;;;;;;;;;11.10;82.01;102286.63;5043246;28;1314;-71
2023/06/01 06:25:14;;;;;;;;;;;;;;;11.08;81.59;102291.09;5043367;28;1122;-71
2023/06/01 06:27:39;;;;;;;;;;;;;;;11.05;81.84;102286.06;5042810;28;1166;-71
2023/06/01 06:30:06;;;;;;;;;;;;;;;11.03;81.25;102285.34;5047765;28;1397;-73
2023/06/01 06:32:31;;;;;;;;;;;;;;;11.05;81.36;102286.06;5046141;28;1894;-73
2023/06/01 06:34:57;;;;;;;;;;;;;;;11.14;81.69;102288.13;5052927;28;1206;-71
2023/06/01 06:37:22;;;;;;;;;;;;;;;11.23;81.26;102291.06;5041629;28;1355;-72
2023/06/01 06:39:47;;;;;;;;;;;;;;;11.30;81.73;102279.41;5048904;28;1334;-72
2023/06/01 06:42:12;;;;;;;;;;;;;;;11.36;81.24;102284.22;5051017;28;1038;-73
2023/06/01 06:44:38;;;;;;;;;;;;;;;11.36;80.03;102292.00;5029789;28;1286;-70
2023/06/01 06:47:03;;;;;;;;;;;;;;;11.33;80.46;102290.44;5044132;28;1327;-72
2023/06/01 06:49:28;;;;;;;;;;;;;;;11.38;80.75;102290.16;5043642;28;1017;-72
2023/06/01 06:51:53;;;;;;;;;;;;;;;11.41;81.40;102295.13;5046328;28;1886;-72
2023/06/01 06:54:19;;;;;;;;;;;;;;;11.36;80.43;102294.63;5038639;28;1217;-72
2023/06/01 06:56:44;;;;;;;;;;;;;;;11.36;80.87;102297.22;5039008;28;1447;-71
2023/06/01 06:59:10;;;;;;;;;;;;;;;11.38;80.87;102303.13;5051370;28;1411;-72
2023/06/01 07:01:35;;;;;;;;;;;;;;;11.43;81.42;102296.72;5047853;28;1539;-74
2023/06/01 07:04:01;;;;;;;;;;;;;;;11.48;80.94;102299.06;5047875;28;1410;-71
2023/06/01 07:06:26;;;;;;;;;;;;;;;11.50;80.41;102299.78;5030597;28;1519;-73
2023/06/01 07:08:52;;;;;;;;;;;;;;;11.46;80.90;102300.06;5038521;28;1186;-73
2023/06/01 07:11:18;;;;;;;;;;;;;;;11.44;80.19;102293.19;5049938;28;1458;-74
2023/06/01 07:13:43;;;;;;;;;;;;;;;11.49;79.88;102295.53;5044091;28;1902;-71
2023/06/01 07:16:08;;;;;;;;;;;;;;;11.55;79.88;102289.94;5046364;28;1339;-71
2023/06/01 07:18:33;;;;;;;;;;;;;;;11.69;79.81;102286.47;5042496;28;1257;-72
2023/06/01 07:20:59;;;;;;;;;;;;;;;11.83;78.81;102288.25;5041777;28;1229;-72
2023/06/01 07:23:24;;;;;;;;;;;;;;;11.91;78.91;102283.38;5046972;28;1334;-71
2023/06/01 07:25:49;;;;;;;;;;;;;;;12.01;78.88;102287.06;5039397;28;1237;-71
2023/06/01 07:28:15;;;;;;;;;;;;;;;12.15;78.86;102294.78;5046677;28;1527;-72
2023/06/01 07:30:41;;;;;;;;;;;;;;;12.27;79.13;102289.72;5045540;28;1196;-72
2023/06/01 07:33:06;;;;;;;;;;;;;;;12.44;78.55;102289.44;5032434;28;1906;-71
2023/06/01 07:35:33;;;;;;;;;;;;;;;12.65;77.42;102292.41;5027597;28;1461;-71
2023/06/01 07:37:58;;;;;;;;;;;;;;;12.78;77.54;102282.81;5050268;28;915;-72
2023/06/01 07:40:23;;;;;;;;;;;;;;;12.84;76.85;102292.00;5044859;28;1360;-71
2023/06/01 07:42:48;;;;;;;;;;;;;;;12.82;76.38;102283.47;5042948;28;1288;-72
2023/06/01 07:45:14;;;;;;;;;;;;;;;12.77;75.24;102283.78;5025602;28;1561;-71
2023/06/01 07:47:39;;;;;;;;;;;;;;;12.67;75.67;102291.38;5050429;28;1139;-72
2023/06/01 07:50:04;;;;;;;;;;;;;;;12.61;75.89;102286.56;5046802;28;1222;-72
2023/06/01 07:52:30;;;;;;;;;;;;;;;12.61;75.96;102286.56;5038197;28;1965;-73
2023/06/01 07:54:56;;;;;;;;;;;;;;;12.71;75.63;102286.78;5036987;28;1322;-72
2023/06/01 07:57:21;;;;;;;;;;;;;;;12.76;76.07;102288.16;5053994;28;1581;-73
2023/06/01 07:59:46;;;;;;;;;;;;;;;12.86;76.24;102285.75;5045485;28;1213;-71
2023/06/01 08:02:13;;;;;;;;;;;;;;;12.91;75.31;102288.06;5030005;28;1637;-74
2023/06/01 08:04:38;;;;;;;;;;;;;;;12.90;75.24;102288.97;5028080;28;1390;-72
2023/06/01 08:07:06;;;;;;;;;;;;;;;12.89;75.97;102285.53;5047151;28;1372;-71
2023/06/01 08:09:31;;;;;;;;;;;;;;;12.90;74.48;102286.38;5035620;28;1427;-72
2023/06/01 08:11:56;;;;;;;;;;;;;;;12.95;74.31;102279.91;5050347;28;1901;-73
2023/06/01 08:14:22;;;;;;;;;;;;;;;13.04;74.51;102283.66;5045928;28;1435;-72
2023/06/01 08:16:47;;;;;;;;;;;;;;;13.16;74.78;102287.19;5043238;28;1647;-71
2023/06/01 08:19:12;;;;;;;;;;;;;;;13.34;74.42;102274.69;5053322;28;1156;-72
2023/06/01 08:21:38;;;;;;;;;;;;;;;13.49;73.08;102273.63;5037219;28;1275;-72
2023/06/01 08:24:03;;;;;;;;;;;;;;;13.62;74.00;102273.56;5037108;28;1240;-72
2023/06/01 08:26:29;;;;;;;;;;;;;;;13.76;73.57;102276.00;5053479;28;1073;-72
2023/06/01 08:28:55;;;;;;;;;;;;;;;13.98;73.28;102270.09;5046785;28;986;-73
2023/06/01 08:31:21;;;;;;;;;;;;;;;13.85;71.73;102277.13;5030330;28;1417;-76
2023/06/01 08:33:46;;;;;;;;;;;;;;;13.85;72.29;102269.31;5050503;28;1906;-74
2023/06/01 08:36:12;;;;;;;;;;;;;;;13.95;72.78;102259.88;5032519;28;1180;-72
2023/06/01 08:38:37;;;;;;;;;;;;;;;14.03;71.54;102258.38;5044579;28;1023;-74
2023/06/01 08:41:25;;;;;;;;;;;;;;;14.17;69.80;102259.16;5047180;28;854;-72
2023/06/01 08:43:55;;;;;;;;;;;;;;;14.19;71.13;102255.47;5043615;28;1319;-72
2023/06/01 08:46:21;;;;;;;;;;;;;;;14.35;71.36;102263.81;5033318;28;1342;-72
2023/06/01 08:48:47;;;;;;;;;;;;;;;14.46;70.19;102260.41;5047845;28;1076;-72
2023/06/01 08:51:13;;;;;;;;;;;;;;;14.56;71.05;102252.72;5051717;28;1391;-72
2023/06/01 08:53:42;;;;;;;;;;;;;;;14.63;70.48;102261.78;5040668;28;1943;-73
2023/06/01 08:56:07;;;;;;;;;;;;;;;14.68;70.38;102257.06;5048875;28;973;-72
2023/06/01 08:58:33;;;;;;;;;;;;;;;14.74;69.40;102260.97;5050136;28;1397;-73
2023/06/01 09:00:58;;;;;;;;;;;;;;;14.70;69.35;102252.53;5028129;28;1250;-72
2023/06/01 09:03:24;;;;;;;;;;;;;;;14.78;68.77;102255.38;5048549;28;1475;-74
2023/06/01 09:05:49;;;;;;;;;;;;;;;14.86;68.97;102253.03;5032682;28;1529;-73
2023/06/01 09:08:15;;;;;;;;;;;;;;;14.89;68.47;102251.94;5046638;28;1193;-72
2023/06/01 09:10:41;;;;;;;;;;;;;;;14.94;69.51;102247.19;5023639;28;1203;-73
2023/06/01 09:13:06;;;;;;;;;;;;;;;15.03;68.17;102250.88;5051757;28;2000;-72
2023/06/01 09:15:31;;;;;;;;;;;;;;;15.07;67.25;102254.91;5046984;28;1444;-72
2023/06/01 09:18:07;;;;;;;;;;;;;;;15.12;67.40;102242.31;5038955;28;1207;-73
2023/06/01 09:20:32;;;;;;;;;;;;;;;15.11;65.28;102243.28;5030823;28;1442;-73
2023/06/01 09:22:58;;;;;;;;;;;;;;;15.14;67.12;102250.88;5045157;28;1225;-73
2023/06/01 09:25:26;;;;;;;;;;;;;;;15.20;67.65;102241.75;5033801;28;1660;-74
2023/06/01 09:27:52;;;;;;;;;;;;;;;15.34;66.79;102237.06;5048065;28;1368;-73
2023/06/01 09:30:19;;;;;;;;;;;;;;;15.44;65.69;102241.56;5051582;28;1169;-72
2023/06/01 09:32:48;;;;;;;;;;;;;;;15.56;66.28;102235.34;5026948;28;1901;-72
2023/06/01 09:35:13;;;;;;;;;;;;;;;15.61;65.31;102233.22;5046265;28;1419;-72
2023/06/01 09:37:38;;;;;;;;;;;;;;;15.75;66.06;102246.03;5052383;28;1439;-73
2023/06/01 09:40:17;;;;;;;;;;;;;;;15.69;65.45;102236.06;5075919;23;1724;-72
2023/06/01 09:42:42;;;;;;;;;;;;;;;15.78;65.38;102217.00;5055969;28;1198;-73
2023/06/01 09:45:37;;;;;;;;;;;;;;;15.84;65.58;102218.28;5066322;28;1271;-73
2023/06/01 09:48:15;;;;;;;;;;;;;;;15.90;65.11;102223.84;5065396;28;1305;-72
2023/06/01 09:50:42;;;;;;;;;;;;;;;15.91;64.00;102208.97;5059671;28;1483;-74
2023/06/01 09:53:07;;;;;;;;;;;;;;;16.00;65.42;102212.63;5060648;28;1902;-70
2023/06/01 09:55:32;;;;;;;;;;;;;;;16.14;65.39;102225.41;5053728;28;1454;-70
2023/06/01 09:58:19;;;;;;;;;;;;;;;16.17;62.45;102215.53;5060458;28;1228;-71
2023/06/01 10:00:46;;;;;;;;;;;;;;;16.20;63.42;102228.34;5074121;28;1363;-71
2023/06/01 10:03:12;;;;;;;;;;;;;;;16.29;63.34;102224.13;5048986;28;1397;-71
2023/06/01 10:05:37;;;;;;;;;;;;;;;16.42;63.70;102211.66;5059877;28;1268;-70
2023/06/01 10:08:02;;;;;;;;;;;;;;;16.41;61.65;102212.63;5061787;28;1199;-71
2023/06/01 10:10:28;;;;;;;;;;;;;;;16.46;63.82;102215.69;5056650;28;1198;-72
2023/06/01 10:12:53;;;;;;;;;;;;;;;16.60;63.69;102211.06;5054735;28;1893;-71
2023/06/01 10:15:18;;;;;;;;;;;;;;;16.66;61.40;102215.78;5062560;28;1359;-71
2023/06/01 10:17:44;;;;;;;;;;;;;;;16.62;61.23;102219.63;5061829;28;1414;-71
2023/06/01 10:20:11;;;;;;;;;;;;;;;16.68;62.49;102213.84;5059990;28;1211;-72
2023/06/01 10:22:38;;;;;;;;;;;;;;;16.73;61.78;102223.00;5061166;28;1237;-74
2023/06/01 10:25:04;;;;;;;;;;;;;;;16.87;62.19;102208.75;5057684;28;1663;-71
2023/06/01 10:27:38;;;;;;;;;;;;;;;17.00;62.29;102203.25;5061342;28;1156;-71
2023/06/01 10:30:06;;;;;;;;;;;;;;;17.16;59.80;102202.75;5059774;28;1102;-72
2023/06/01 10:32:37;;;;;;;;;;;;;;;17.15;60.76;102201.09;5054544;28;1956;-72
2023/06/01 10:35:23;;;;;;;;;;;;;;;17.22;60.65;102202.22;5064133;28;1158;-72
2023/06/01 10:38:06;;;;;;;;;;;;;;;17.34;60.68;102203.75;5047573;28;1143;-71
2023/06/01 10:40:36;;;;;;;;;;;;;;;17.43;61.47;102205.56;5056547;28;1103;-72
2023/06/01 10:43:01;;;;;;;;;;;;;;;17.44;60.07;102193.28;5061330;28;1443;-71
2023/06/01 10:45:39;;;;;;;;;;;;;;;17.44;60.88;102199.34;5063895;28;1070;-73
2023/06/01 10:48:10;;;;;;;;;;;;;;;17.46;60.04;102193.97;5053960;28;1337;-72
2023/06/01 10:50:36;;;;;;;;;;;;;;;17.53;60.28;102195.06;5059254;28;1316;-72
2023/06/01 10:53:19;;;;;;;;;;;;;;;17.59;60.51;102188.44;5059374;28;1959;-72
2023/06/01 10:55:45;;;;;;;;;;;;;;;17.61;59.63;102186.53;5061090;28;1119;-72
2023/06/01 10:58:21;;;;;;;;;;;;;;;17.69;60.23;102189.28;5059979;28;1398;-72
2023/06/01 11:00:46;;;;;;;;;;;;;;;17.78;58.29;102188.50;5057065;28;1559;-71
2023/06/01 11:03:11;;;;;;;;;;;;;;;17.73;58.14;102201.19;5060708;28;1067;-72
2023/06/01 11:05:43;;;;;;;;;;;;;;;17.80;58.64;102194.41;5064776;28;1301;-72
2023/06/01 11:08:28;;;;;;;;;;;;;;;17.92;59.36;102190.69;5063322;28;1341;-72
2023/06/01 11:11:02;;;;;;;;;;;;;;;18.00;58.00;102190.78;5059038;28;1419;-72
2023/06/01 11:13:29;;;;;;;;;;;;;;;17.97;58.03;102183.22;5058237;28;1968;-72
2023/06/01 11:16:03;;;;;;;;;;;;;;;17.93;57.57;102181.81;5062809;28;1346;-71
2023/06/01 11:18:49;;;;;;;;;;;;;;;18.04;58.05;102183.47;5062759;28;1606;-72
2023/06/01 11:21:16;;;;;;;;;;;;;;;18.02;55.15;102170.50;5061390;28;905;-71
2023/06/01 11:23:41;;;;;;;;;;;;;;;17.86;56.69;102170.25;5064120;28;1077;-71
2023/06/01 11:26:07;;;;;;;;;;;;;;;17.94;56.97;102178.22;5061110;28;1261;-72
2023/06/01 11:28:32;;;;;;;;;;;;;;;18.04;56.76;102173.78;5061582;28;1712;-72
2023/06/01 11:31:00;;;;;;;;;;;;;;;18.12;57.18;102170.47;5059477;28;1323;-71
2023/06/01 11:33:28;;;;;;;;;;;;;;;18.24;55.94;102176.41;5063973;28;1949;-71
2023/06/01 11:36:05;;;;;;;;;;;;;;;18.23;57.12;102172.09;5060990;28;1284;-71
2023/06/01 11:38:40;;;;;;;;;;;;;;;18.30;55.20;102173.19;5065593;28;1396;-72
2023/06/01 11:41:08;;;;;;;;;;;;;;;18.27;55.56;102162.97;5063840;28;1199;-71
2023/06/01 11:43:33;;;;;;;;;;;;;;;18.29;55.85;102167.13;5065727;28;1165;-72
2023/06/01 11:46:03;;;;;;;;;;;;;;;18.20;55.02;102169.75;5065021;28;1433;-73
2023/06/01 11:48:29;;;;;;;;;;;;;;;18.11;56.46;102166.19;5065000;28;1355;-72
2023/06/01 11:50:54;;;;;;;;;;;;;;;18.21;57.49;102169.63;5066656;28;1307;-71
2023/06/01 11:53:20;;;;;;;;;;;;;;;18.33;56.54;102167.66;5059244;28;1898;-73
2023/06/01 11:55:49;;;;;;;;;;;;;;;18.37;56.56;102169.03;5065474;28;1327;-72
2023/06/01 11:58:19;;;;;;;;;;;;;;;18.31;56.27;102164.34;5055349;28;1486;-73
2023/06/01 12:00:45;;;;;;;;;;;;;;;18.36;56.68;102167.38;5067997;28;1261;-73
2023/06/01 12:03:10;;;;;;;;;;;;;;;18.32;55.97;102171.25;5063861;28;1393;-71
2023/06/01 12:05:41;;;;;;;;;;;;;;;18.37;56.49;102163.78;5059404;28;1265;-71
2023/06/01 12:08:07;;;;;;;;;;;;;;;18.41;56.38;102165.16;5061282;28;1282;-72
2023/06/01 12:10:32;;;;;;;;;;;;;;;18.36;56.76;102167.38;5062167;28;1485;-73
2023/06/01 12:12:59;;;;;;;;;;;;;;;18.40;55.72;102166.09;5059874;28;1902;-72
2023/06/01 12:15:25;;;;;;;;;;;;;;;18.42;56.35;102165.97;5069383;28;1304;-73
2023/06/01 12:17:51;;;;;;;;;;;;;;;18.46;55.99;102162.88;5065602;28;1130;-71
2023/06/01 12:20:35;;;;;;;;;;;;;;;18.46;55.77;102162.88;5067711;28;1071;-72
2023/06/01 12:23:03;;;;;;;;;;;;;;;18.40;54.70;102163.47;5060038;28;1207;-72
2023/06/01 12:25:31;;;;;;;;;;;;;;;18.39;55.12;102159.19;5057044;28;1431;-71
2023/06/01 12:28:02;;;;;;;;;;;;;;;18.41;54.58;102153.78;5066660;28;1131;-71
2023/06/01 12:30:27;;;;;;;;;;;;;;;18.44;55.44;102162.22;5067739;28;1028;-72
2023/06/01 12:32:52;;;;;;;;;;;;;;;18.49;55.32;102152.09;5065619;28;1944;-72
2023/06/01 12:35:18;;;;;;;;;;;;;;;18.57;54.90;102160.06;5064242;28;1142;-72
2023/06/01 12:37:43;;;;;;;;;;;;;;;18.62;55.06;102150.94;5057962;28;1107;-71
2023/06/01 12:40:09;;;;;;;;;;;;;;;18.67;54.71;102154.81;5065254;28;1197;-71
2023/06/01 12:42:38;;;;;;;;;;;;;;;18.57;55.81;102161.88;5069453;28;1089;-72
2023/06/01 12:45:03;;;;;;;;;;;;;;;18.61;56.04;102155.38;5063154;28;1154;-72